sensor_id;sensor_type;location;lat;lon;timestamp;P1;durP1;ratioP1;P2;durP2;ratioP2
31730;SDS011;18310;55.586;12.286;2024-01-30T00:01:09;23.75;;;9.93;;
31730;SDS011;18310;55.586;12.286;2024-01-30T00:04:13;20.38;;;9.63;;
31730;SDS011;18310;55.586;12.286;2024-01-30T00:07:16;22.23;;;10.23;;
31730;SDS011;18310;55.586;12.286;2024-01-30T00:10:22;28.42;;;10.68;;
31730;SDS011;18310;55.586;12.286;2024-01-30T00:13:26;26.75;;;9.38;;
31730;SDS011;18310;55.586;12.286;2024-01-30T00:16:30;16.83;;;8.75;;
31730;SDS011;18310;55.586;12.286;2024-01-30T00:22:37;22.08;;;9.02;;
31730;SDS011;18310;55.586;12.286;2024-01-30T00:25:43;23.50;;;8.90;;
31730;SDS011;18310;55.586;12.286;2024-01-30T00:28:46;20.70;;;9.18;;
31730;SDS011;18310;55.586;12.286;2024-01-30T00:31:49;28.67;;;9.45;;
31730;SDS011;18310;55.586;12.286;2024-01-30T00:34:53;22.03;;;10.80;;
31730;SDS011;18310;55.586;12.286;2024-01-30T00:41:01;23.55;;;9.50;;
31730;SDS011;18310;55.586;12.286;2024-01-30T00:44:05;22.88;;;11.15;;
31730;SDS011;18310;55.586;12.286;2024-01-30T00:47:08;28.30;;;11.53;;
31730;SDS011;18310;55.586;12.286;2024-01-30T00:50:12;26.65;;;10.20;;
31730;SDS011;18310;55.586;12.286;2024-01-30T00:53:15;23.53;;;10.60;;
31730;SDS011;18310;55.586;12.286;2024-01-30T00:56:20;37.83;;;11.88;;
31730;SDS011;18310;55.586;12.286;2024-01-30T00:59:23;27.55;;;11.85;;
31730;SDS011;18310;55.586;12.286;2024-01-30T01:02:27;32.42;;;12.45;;
31730;SDS011;18310;55.586;12.286;2024-01-30T01:05:31;34.23;;;12.40;;
31730;SDS011;18310;55.586;12.286;2024-01-30T01:08:34;33.22;;;13.55;;
31730;SDS011;18310;55.586;12.286;2024-01-30T01:11:39;31.98;;;12.30;;
31730;SDS011;18310;55.586;12.286;2024-01-30T01:14:43;32.25;;;11.73;;
31730;SDS011;18310;55.586;12.286;2024-01-30T01:17:47;30.05;;;11.77;;
31730;SDS011;18310;55.586;12.286;2024-01-30T01:20:50;40.13;;;14.82;;
31730;SDS011;18310;55.586;12.286;2024-01-30T01:23:54;36.65;;;14.32;;
31730;SDS011;18310;55.586;12.286;2024-01-30T01:26:59;31.80;;;13.57;;
31730;SDS011;18310;55.586;12.286;2024-01-30T01:30:03;34.20;;;13.32;;
31730;SDS011;18310;55.586;12.286;2024-01-30T01:33:09;29.52;;;13.32;;
31730;SDS011;18310;55.586;12.286;2024-01-30T01:36:16;31.30;;;13.98;;
31730;SDS011;18310;55.586;12.286;2024-01-30T01:39:19;35.37;;;15.67;;
31730;SDS011;18310;55.586;12.286;2024-01-30T01:42:24;35.80;;;15.37;;
31730;SDS011;18310;55.586;12.286;2024-01-30T01:45:27;31.20;;;13.20;;
31730;SDS011;18310;55.586;12.286;2024-01-30T01:48:31;35.67;;;14.90;;
31730;SDS011;18310;55.586;12.286;2024-01-30T01:51:35;31.23;;;13.50;;
31730;SDS011;18310;55.586;12.286;2024-01-30T01:54:40;36.13;;;14.90;;
31730;SDS011;18310;55.586;12.286;2024-01-30T01:57:45;37.65;;;14.15;;
31730;SDS011;18310;55.586;12.286;2024-01-30T02:00:49;28.88;;;12.52;;
31730;SDS011;18310;55.586;12.286;2024-01-30T02:04:00;29.40;;;12.82;;
31730;SDS011;18310;55.586;12.286;2024-01-30T02:07:04;30.83;;;13.65;;
31730;SDS011;18310;55.586;12.286;2024-01-30T02:10:31;37.88;;;13.90;;
31730;SDS011;18310;55.586;12.286;2024-01-30T02:13:34;28.77;;;13.70;;
31730;SDS011;18310;55.586;12.286;2024-01-30T02:16:38;23.88;;;11.73;;
31730;SDS011;18310;55.586;12.286;2024-01-30T02:19:42;33.70;;;13.07;;
31730;SDS011;18310;55.586;12.286;2024-01-30T02:22:47;30.75;;;13.00;;
31730;SDS011;18310;55.586;12.286;2024-01-30T02:25:52;33.00;;;13.38;;
31730;SDS011;18310;55.586;12.286;2024-01-30T02:29:02;28.77;;;12.18;;
31730;SDS011;18310;55.586;12.286;2024-01-30T02:32:06;33.75;;;13.35;;
31730;SDS011;18310;55.586;12.286;2024-01-30T02:35:10;34.28;;;15.98;;
31730;SDS011;18310;55.586;12.286;2024-01-30T02:38:15;33.72;;;15.95;;
31730;SDS011;18310;55.586;12.286;2024-01-30T02:41:19;36.60;;;15.88;;
31730;SDS011;18310;55.586;12.286;2024-01-30T02:47:49;36.85;;;16.38;;
31730;SDS011;18310;55.586;12.286;2024-01-30T02:50:53;38.70;;;17.33;;
31730;SDS011;18310;55.586;12.286;2024-01-30T02:54:02;30.35;;;15.88;;
31730;SDS011;18310;55.586;12.286;2024-01-30T02:57:06;33.17;;;14.30;;
31730;SDS011;18310;55.586;12.286;2024-01-30T03:00:10;30.30;;;15.80;;
31730;SDS011;18310;55.586;12.286;2024-01-30T03:03:16;33.97;;;15.90;;
31730;SDS011;18310;55.586;12.286;2024-01-30T03:06:20;41.97;;;17.88;;
31730;SDS011;18310;55.586;12.286;2024-01-30T03:09:24;44.47;;;18.95;;
31730;SDS011;18310;55.586;12.286;2024-01-30T03:12:28;40.80;;;17.67;;
31730;SDS011;18310;55.586;12.286;2024-01-30T03:15:31;53.13;;;20.48;;
31730;SDS011;18310;55.586;12.286;2024-01-30T03:18:36;41.15;;;17.77;;
31730;SDS011;18310;55.586;12.286;2024-01-30T03:21:40;52.00;;;19.33;;
31730;SDS011;18310;55.586;12.286;2024-01-30T03:24:44;37.90;;;17.23;;
31730;SDS011;18310;55.586;12.286;2024-01-30T03:27:48;46.65;;;18.98;;
31730;SDS011;18310;55.586;12.286;2024-01-30T03:30:52;43.00;;;18.65;;
31730;SDS011;18310;55.586;12.286;2024-01-30T03:33:57;38.22;;;16.40;;
31730;SDS011;18310;55.586;12.286;2024-01-30T03:37:27;39.70;;;19.08;;
31730;SDS011;18310;55.586;12.286;2024-01-30T03:40:31;41.50;;;17.20;;
31730;SDS011;18310;55.586;12.286;2024-01-30T03:43:34;38.75;;;17.08;;
31730;SDS011;18310;55.586;12.286;2024-01-30T03:49:42;32.33;;;12.85;;
31730;SDS011;18310;55.586;12.286;2024-01-30T03:52:47;32.30;;;13.97;;
31730;SDS011;18310;55.586;12.286;2024-01-30T03:55:50;27.48;;;12.98;;
31730;SDS011;18310;55.586;12.286;2024-01-30T03:58:54;31.33;;;13.57;;
31730;SDS011;18310;55.586;12.286;2024-01-30T04:01:59;30.48;;;13.63;;
31730;SDS011;18310;55.586;12.286;2024-01-30T04:05:03;29.55;;;13.90;;
31730;SDS011;18310;55.586;12.286;2024-01-30T04:08:09;27.90;;;12.35;;
31730;SDS011;18310;55.586;12.286;2024-01-30T04:11:13;35.92;;;14.13;;
31730;SDS011;18310;55.586;12.286;2024-01-30T04:14:17;27.37;;;13.40;;
31730;SDS011;18310;55.586;12.286;2024-01-30T04:17:20;32.40;;;14.77;;
31730;SDS011;18310;55.586;12.286;2024-01-30T04:20:45;35.30;;;14.82;;
31730;SDS011;18310;55.586;12.286;2024-01-30T04:23:50;37.67;;;14.98;;
31730;SDS011;18310;55.586;12.286;2024-01-30T04:26:54;39.05;;;15.50;;
31730;SDS011;18310;55.586;12.286;2024-01-30T04:29:57;32.17;;;14.90;;
31730;SDS011;18310;55.586;12.286;2024-01-30T04:33:01;36.50;;;14.37;;
31730;SDS011;18310;55.586;12.286;2024-01-30T04:36:07;41.07;;;15.43;;
31730;SDS011;18310;55.586;12.286;2024-01-30T04:39:12;37.20;;;14.93;;
31730;SDS011;18310;55.586;12.286;2024-01-30T04:42:16;61.95;;;15.43;;
31730;SDS011;18310;55.586;12.286;2024-01-30T04:45:19;44.13;;;14.45;;
31730;SDS011;18310;55.586;12.286;2024-01-30T04:48:23;65.80;;;16.65;;
31730;SDS011;18310;55.586;12.286;2024-01-30T04:51:28;65.80;;;15.63;;
31730;SDS011;18310;55.586;12.286;2024-01-30T04:54:31;62.90;;;15.23;;
31730;SDS011;18310;55.586;12.286;2024-01-30T04:57:35;114.22;;;18.20;;
31730;SDS011;18310;55.586;12.286;2024-01-30T05:00:38;88.53;;;15.43;;
31730;SDS011;18310;55.586;12.286;2024-01-30T05:04:08;52.45;;;14.18;;
31730;SDS011;18310;55.586;12.286;2024-01-30T05:07:18;53.40;;;15.50;;
31730;SDS011;18310;55.586;12.286;2024-01-30T05:10:21;65.78;;;16.02;;
31730;SDS011;18310;55.586;12.286;2024-01-30T05:13:25;59.72;;;14.98;;
31730;SDS011;18310;55.586;12.286;2024-01-30T05:16:28;93.80;;;16.87;;
31730;SDS011;18310;55.586;12.286;2024-01-30T05:19:33;138.30;;;17.05;;
31730;SDS011;18310;55.586;12.286;2024-01-30T05:22:38;152.98;;;16.60;;
31730;SDS011;18310;55.586;12.286;2024-01-30T05:25:46;168.30;;;16.52;;
31730;SDS011;18310;55.586;12.286;2024-01-30T05:28:50;178.33;;;17.27;;
31730;SDS011;18310;55.586;12.286;2024-01-30T05:31:54;153.30;;;16.90;;
31730;SDS011;18310;55.586;12.286;2024-01-30T05:34:58;117.85;;;15.20;;
31730;SDS011;18310;55.586;12.286;2024-01-30T05:38:02;103.85;;;16.67;;
31730;SDS011;18310;55.586;12.286;2024-01-30T05:41:06;87.70;;;14.90;;
31730;SDS011;18310;55.586;12.286;2024-01-30T05:44:10;86.45;;;16.35;;
31730;SDS011;18310;55.586;12.286;2024-01-30T05:47:14;89.27;;;16.60;;
31730;SDS011;18310;55.586;12.286;2024-01-30T05:50:20;73.75;;;14.60;;
31730;SDS011;18310;55.586;12.286;2024-01-30T05:53:25;139.30;;;16.52;;
31730;SDS011;18310;55.586;12.286;2024-01-30T05:56:28;95.63;;;17.63;;
31730;SDS011;18310;55.586;12.286;2024-01-30T05:59:32;138.68;;;17.55;;
31730;SDS011;18310;55.586;12.286;2024-01-30T06:02:37;107.35;;;16.08;;
31730;SDS011;18310;55.586;12.286;2024-01-30T06:05:42;53.20;;;15.00;;
31730;SDS011;18310;55.586;12.286;2024-01-30T06:08:46;193.07;;;20.13;;
31730;SDS011;18310;55.586;12.286;2024-01-30T06:11:50;164.77;;;20.48;;
31730;SDS011;18310;55.586;12.286;2024-01-30T06:14:53;101.07;;;17.77;;
31730;SDS011;18310;55.586;12.286;2024-01-30T06:17:58;198.13;;;21.25;;
31730;SDS011;18310;55.586;12.286;2024-01-30T06:21:05;131.30;;;17.10;;
31730;SDS011;18310;55.586;12.286;2024-01-30T06:24:12;163.82;;;20.13;;
31730;SDS011;18310;55.586;12.286;2024-01-30T06:27:15;138.25;;;21.00;;
31730;SDS011;18310;55.586;12.286;2024-01-30T06:30:19;139.13;;;19.42;;
31730;SDS011;18310;55.586;12.286;2024-01-30T06:33:23;180.80;;;21.77;;
31730;SDS011;18310;55.586;12.286;2024-01-30T06:36:28;172.20;;;19.35;;
31730;SDS011;18310;55.586;12.286;2024-01-30T06:39:32;177.77;;;20.35;;
31730;SDS011;18310;55.586;12.286;2024-01-30T06:42:35;158.32;;;20.17;;
31730;SDS011;18310;55.586;12.286;2024-01-30T06:45:39;228.93;;;22.15;;
31730;SDS011;18310;55.586;12.286;2024-01-30T06:48:44;226.63;;;20.25;;
31730;SDS011;18310;55.586;12.286;2024-01-30T06:51:49;254.85;;;21.20;;
31730;SDS011;18310;55.586;12.286;2024-01-30T06:54:53;235.63;;;19.85;;
31730;SDS011;18310;55.586;12.286;2024-01-30T06:57:57;191.48;;;19.38;;
31730;SDS011;18310;55.586;12.286;2024-01-30T07:01:01;229.68;;;20.85;;
31730;SDS011;18310;55.586;12.286;2024-01-30T07:04:04;296.93;;;24.67;;
31730;SDS011;18310;55.586;12.286;2024-01-30T07:07:09;228.85;;;19.92;;
31730;SDS011;18310;55.586;12.286;2024-01-30T07:10:15;152.43;;;17.42;;
31730;SDS011;18310;55.586;12.286;2024-01-30T07:13:18;229.55;;;20.58;;
31730;SDS011;18310;55.586;12.286;2024-01-30T07:16:22;183.65;;;20.27;;
31730;SDS011;18310;55.586;12.286;2024-01-30T07:19:26;102.50;;;17.52;;
31730;SDS011;18310;55.586;12.286;2024-01-30T07:22:31;68.85;;;16.52;;
31730;SDS011;18310;55.586;12.286;2024-01-30T07:25:35;145.75;;;20.02;;
31730;SDS011;18310;55.586;12.286;2024-01-30T07:28:39;115.47;;;20.05;;
31730;SDS011;18310;55.586;12.286;2024-01-30T07:31:42;106.68;;;19.35;;
31730;SDS011;18310;55.586;12.286;2024-01-30T07:34:45;77.47;;;17.93;;
31730;SDS011;18310;55.586;12.286;2024-01-30T07:38:09;154.60;;;20.10;;
31730;SDS011;18310;55.586;12.286;2024-01-30T07:41:12;70.53;;;17.77;;
31730;SDS011;18310;55.586;12.286;2024-01-30T07:44:16;116.82;;;17.25;;
31730;SDS011;18310;55.586;12.286;2024-01-30T07:47:19;49.17;;;16.27;;
31730;SDS011;18310;55.586;12.286;2024-01-30T07:50:23;70.22;;;16.92;;
31730;SDS011;18310;55.586;12.286;2024-01-30T07:53:28;69.53;;;16.65;;
31730;SDS011;18310;55.586;12.286;2024-01-30T07:56:31;50.92;;;16.42;;
31730;SDS011;18310;55.586;12.286;2024-01-30T07:59:35;107.50;;;17.67;;
31730;SDS011;18310;55.586;12.286;2024-01-30T08:02:38;124.07;;;18.87;;
31730;SDS011;18310;55.586;12.286;2024-01-30T08:05:41;134.73;;;18.37;;
31730;SDS011;18310;55.586;12.286;2024-01-30T08:08:46;115.10;;;17.30;;
31730;SDS011;18310;55.586;12.286;2024-01-30T08:11:49;152.32;;;19.20;;
31730;SDS011;18310;55.586;12.286;2024-01-30T08:14:53;99.28;;;18.35;;
31730;SDS011;18310;55.586;12.286;2024-01-30T08:17:56;168.07;;;19.77;;
31730;SDS011;18310;55.586;12.286;2024-01-30T08:21:01;82.00;;;18.88;;
31730;SDS011;18310;55.586;12.286;2024-01-30T08:24:06;187.20;;;20.60;;
31730;SDS011;18310;55.586;12.286;2024-01-30T08:27:10;129.18;;;17.98;;
31730;SDS011;18310;55.586;12.286;2024-01-30T08:30:37;130.48;;;20.05;;
31730;SDS011;18310;55.586;12.286;2024-01-30T08:33:42;120.35;;;18.98;;
31730;SDS011;18310;55.586;12.286;2024-01-30T08:36:47;124.85;;;20.70;;
31730;SDS011;18310;55.586;12.286;2024-01-30T08:39:51;96.95;;;20.35;;
31730;SDS011;18310;55.586;12.286;2024-01-30T08:42:55;88.25;;;20.40;;
31730;SDS011;18310;55.586;12.286;2024-01-30T08:46:01;86.95;;;20.42;;
31730;SDS011;18310;55.586;12.286;2024-01-30T08:49:05;109.47;;;21.08;;
31730;SDS011;18310;55.586;12.286;2024-01-30T08:52:11;101.95;;;19.27;;
31730;SDS011;18310;55.586;12.286;2024-01-30T08:55:14;129.77;;;19.40;;
31730;SDS011;18310;55.586;12.286;2024-01-30T08:58:17;90.33;;;19.03;;
31730;SDS011;18310;55.586;12.286;2024-01-30T09:01:22;113.60;;;21.08;;
31730;SDS011;18310;55.586;12.286;2024-01-30T09:04:25;110.45;;;20.92;;
31730;SDS011;18310;55.586;12.286;2024-01-30T09:07:29;85.95;;;18.02;;
31730;SDS011;18310;55.586;12.286;2024-01-30T09:10:32;114.07;;;20.40;;
31730;SDS011;18310;55.586;12.286;2024-01-30T09:13:36;124.90;;;18.52;;
31730;SDS011;18310;55.586;12.286;2024-01-30T09:16:41;127.18;;;16.83;;
31730;SDS011;18310;55.586;12.286;2024-01-30T09:19:46;95.68;;;16.55;;
31730;SDS011;18310;55.586;12.286;2024-01-30T09:22:51;85.38;;;16.70;;
31730;SDS011;18310;55.586;12.286;2024-01-30T09:25:54;90.10;;;15.13;;
31730;SDS011;18310;55.586;12.286;2024-01-30T09:29:04;83.57;;;15.35;;
31730;SDS011;18310;55.586;12.286;2024-01-30T09:32:09;142.30;;;15.17;;
31730;SDS011;18310;55.586;12.286;2024-01-30T09:35:12;99.57;;;13.60;;
31730;SDS011;18310;55.586;12.286;2024-01-30T09:38:16;84.30;;;12.35;;
31730;SDS011;18310;55.586;12.286;2024-01-30T09:41:20;91.00;;;13.00;;
31730;SDS011;18310;55.586;12.286;2024-01-30T09:44:28;112.82;;;13.38;;
31730;SDS011;18310;55.586;12.286;2024-01-30T09:47:33;63.30;;;11.98;;
31730;SDS011;18310;55.586;12.286;2024-01-30T09:50:44;80.40;;;12.32;;
31730;SDS011;18310;55.586;12.286;2024-01-30T09:53:48;43.15;;;11.15;;
31730;SDS011;18310;55.586;12.286;2024-01-30T09:56:52;52.70;;;9.55;;
31730;SDS011;18310;55.586;12.286;2024-01-30T09:59:55;69.75;;;10.32;;
31730;SDS011;18310;55.586;12.286;2024-01-30T10:03:01;78.28;;;10.13;;
31730;SDS011;18310;55.586;12.286;2024-01-30T10:06:04;66.57;;;10.38;;
31730;SDS011;18310;55.586;12.286;2024-01-30T10:09:08;56.67;;;9.65;;
31730;SDS011;18310;55.586;12.286;2024-01-30T10:12:12;95.80;;;10.32;;
31730;SDS011;18310;55.586;12.286;2024-01-30T10:15:16;45.88;;;8.95;;
31730;SDS011;18310;55.586;12.286;2024-01-30T10:18:23;71.60;;;9.25;;
31730;SDS011;18310;55.586;12.286;2024-01-30T10:21:26;63.22;;;9.18;;
31730;SDS011;18310;55.586;12.286;2024-01-30T10:24:30;88.47;;;9.60;;
31730;SDS011;18310;55.586;12.286;2024-01-30T10:27:34;37.53;;;8.35;;
31730;SDS011;18310;55.586;12.286;2024-01-30T10:30:37;52.93;;;7.57;;
31730;SDS011;18310;55.586;12.286;2024-01-30T10:33:42;36.00;;;6.60;;
31730;SDS011;18310;55.586;12.286;2024-01-30T10:36:47;23.23;;;6.32;;
31730;SDS011;18310;55.586;12.286;2024-01-30T10:39:53;39.78;;;7.07;;
31730;SDS011;18310;55.586;12.286;2024-01-30T10:42:57;47.30;;;7.47;;
31730;SDS011;18310;55.586;12.286;2024-01-30T10:46:06;36.35;;;6.60;;
31730;SDS011;18310;55.586;12.286;2024-01-30T10:49:36;38.45;;;8.27;;
31730;SDS011;18310;55.586;12.286;2024-01-30T10:52:40;25.35;;;8.18;;
31730;SDS011;18310;55.586;12.286;2024-01-30T10:55:45;24.52;;;7.53;;
31730;SDS011;18310;55.586;12.286;2024-01-30T10:58:52;30.02;;;7.05;;
31730;SDS011;18310;55.586;12.286;2024-01-30T11:01:56;23.80;;;7.70;;
31730;SDS011;18310;55.586;12.286;2024-01-30T11:05:02;30.55;;;7.53;;
31730;SDS011;18310;55.586;12.286;2024-01-30T11:08:14;37.38;;;7.55;;
31730;SDS011;18310;55.586;12.286;2024-01-30T11:11:17;21.50;;;8.00;;
31730;SDS011;18310;55.586;12.286;2024-01-30T11:14:23;19.63;;;8.17;;
31730;SDS011;18310;55.586;12.286;2024-01-30T11:17:28;20.63;;;9.10;;
31730;SDS011;18310;55.586;12.286;2024-01-30T11:20:33;24.77;;;8.23;;
31730;SDS011;18310;55.586;12.286;2024-01-30T11:23:38;30.35;;;9.25;;
31730;SDS011;18310;55.586;12.286;2024-01-30T11:26:42;26.67;;;9.85;;
31730;SDS011;18310;55.586;12.286;2024-01-30T11:29:49;31.83;;;10.18;;
31730;SDS011;18310;55.586;12.286;2024-01-30T11:32:59;34.88;;;9.20;;
31730;SDS011;18310;55.586;12.286;2024-01-30T11:36:10;25.70;;;9.60;;
31730;SDS011;18310;55.586;12.286;2024-01-30T11:39:17;23.90;;;9.45;;
31730;SDS011;18310;55.586;12.286;2024-01-30T11:42:23;47.58;;;9.40;;
31730;SDS011;18310;55.586;12.286;2024-01-30T11:48:31;24.95;;;8.75;;
31730;SDS011;18310;55.586;12.286;2024-01-30T11:51:36;42.58;;;9.30;;
31730;SDS011;18310;55.586;12.286;2024-01-30T11:54:39;49.78;;;9.70;;
31730;SDS011;18310;55.586;12.286;2024-01-30T11:57:43;28.70;;;8.07;;
31730;SDS011;18310;55.586;12.286;2024-01-30T12:00:52;32.53;;;8.23;;
31730;SDS011;18310;55.586;12.286;2024-01-30T12:03:58;35.85;;;8.98;;
31730;SDS011;18310;55.586;12.286;2024-01-30T12:07:04;37.97;;;8.80;;
31730;SDS011;18310;55.586;12.286;2024-01-30T12:10:08;39.40;;;8.00;;
31730;SDS011;18310;55.586;12.286;2024-01-30T12:13:13;24.42;;;8.38;;
31730;SDS011;18310;55.586;12.286;2024-01-30T12:16:17;32.53;;;8.68;;
31730;SDS011;18310;55.586;12.286;2024-01-30T12:19:21;23.10;;;9.15;;
31730;SDS011;18310;55.586;12.286;2024-01-30T12:22:27;18.75;;;8.45;;
31730;SDS011;18310;55.586;12.286;2024-01-30T12:25:31;21.67;;;9.55;;
31730;SDS011;18310;55.586;12.286;2024-01-30T12:28:34;18.48;;;9.00;;
31730;SDS011;18310;55.586;12.286;2024-01-30T12:31:38;20.00;;;8.40;;
31730;SDS011;18310;55.586;12.286;2024-01-30T12:34:41;21.77;;;9.57;;
31730;SDS011;18310;55.586;12.286;2024-01-30T12:38:02;19.48;;;9.55;;
31730;SDS011;18310;55.586;12.286;2024-01-30T12:41:07;24.20;;;10.18;;
31730;SDS011;18310;55.586;12.286;2024-01-30T12:44:13;23.05;;;10.75;;
31730;SDS011;18310;55.586;12.286;2024-01-30T12:47:17;21.70;;;10.40;;
31730;SDS011;18310;55.586;12.286;2024-01-30T12:50:21;22.98;;;10.23;;
31730;SDS011;18310;55.586;12.286;2024-01-30T12:53:26;22.90;;;10.33;;
31730;SDS011;18310;55.586;12.286;2024-01-30T12:56:30;26.92;;;11.70;;
31730;SDS011;18310;55.586;12.286;2024-01-30T12:59:34;30.25;;;11.90;;
31730;SDS011;18310;55.586;12.286;2024-01-30T13:02:37;32.40;;;11.73;;
31730;SDS011;18310;55.586;12.286;2024-01-30T13:05:40;23.87;;;11.23;;
31730;SDS011;18310;55.586;12.286;2024-01-30T13:08:47;24.13;;;10.88;;
31730;SDS011;18310;55.586;12.286;2024-01-30T13:11:51;27.60;;;11.23;;
31730;SDS011;18310;55.586;12.286;2024-01-30T13:14:54;21.90;;;10.50;;
31730;SDS011;18310;55.586;12.286;2024-01-30T13:17:58;25.77;;;11.45;;
31730;SDS011;18310;55.586;12.286;2024-01-30T13:21:01;22.70;;;10.43;;
31730;SDS011;18310;55.586;12.286;2024-01-30T13:24:06;25.23;;;10.97;;
31730;SDS011;18310;55.586;12.286;2024-01-30T13:27:10;23.52;;;10.32;;
31730;SDS011;18310;55.586;12.286;2024-01-30T13:30:13;18.80;;;10.07;;
31730;SDS011;18310;55.586;12.286;2024-01-30T13:33:17;20.35;;;11.27;;
31730;SDS011;18310;55.586;12.286;2024-01-30T13:37:15;20.25;;;10.68;;
31730;SDS011;18310;55.586;12.286;2024-01-30T13:40:19;24.60;;;10.30;;
31730;SDS011;18310;55.586;12.286;2024-01-30T13:43:25;18.27;;;9.43;;
31730;SDS011;18310;55.586;12.286;2024-01-30T13:46:29;20.50;;;10.25;;
31730;SDS011;18310;55.586;12.286;2024-01-30T13:49:33;20.65;;;10.43;;
31730;SDS011;18310;55.586;12.286;2024-01-30T13:52:38;17.17;;;9.18;;
31730;SDS011;18310;55.586;12.286;2024-01-30T13:55:46;17.45;;;9.05;;
31730;SDS011;18310;55.586;12.286;2024-01-30T13:58:50;16.38;;;8.75;;
31730;SDS011;18310;55.586;12.286;2024-01-30T14:01:53;13.97;;;8.47;;
31730;SDS011;18310;55.586;12.286;2024-01-30T14:04:56;20.60;;;10.47;;
31730;SDS011;18310;55.586;12.286;2024-01-30T14:08:02;18.73;;;9.52;;
31730;SDS011;18310;55.586;12.286;2024-01-30T14:11:05;21.00;;;9.10;;
31730;SDS011;18310;55.586;12.286;2024-01-30T14:14:09;16.97;;;9.47;;
31730;SDS011;18310;55.586;12.286;2024-01-30T14:17:13;18.88;;;9.07;;
31730;SDS011;18310;55.586;12.286;2024-01-30T14:20:16;18.07;;;9.63;;
31730;SDS011;18310;55.586;12.286;2024-01-30T14:26:25;17.02;;;8.80;;
31730;SDS011;18310;55.586;12.286;2024-01-30T14:29:28;19.98;;;9.45;;
31730;SDS011;18310;55.586;12.286;2024-01-30T14:32:32;17.52;;;9.43;;
31730;SDS011;18310;55.586;12.286;2024-01-30T14:35:37;17.90;;;9.38;;
31730;SDS011;18310;55.586;12.286;2024-01-30T14:38:42;15.88;;;9.55;;
31730;SDS011;18310;55.586;12.286;2024-01-30T14:41:47;17.73;;;9.25;;
31730;SDS011;18310;55.586;12.286;2024-01-30T14:44:51;18.27;;;9.70;;
31730;SDS011;18310;55.586;12.286;2024-01-30T14:47:56;17.27;;;9.52;;
31730;SDS011;18310;55.586;12.286;2024-01-30T14:51:00;17.48;;;10.23;;
31730;SDS011;18310;55.586;12.286;2024-01-30T14:54:05;17.07;;;9.47;;
31730;SDS011;18310;55.586;12.286;2024-01-30T14:57:08;15.82;;;9.77;;
31730;SDS011;18310;55.586;12.286;2024-01-30T15:00:13;18.77;;;10.02;;
31730;SDS011;18310;55.586;12.286;2024-01-30T15:03:18;19.20;;;9.45;;
31730;SDS011;18310;55.586;12.286;2024-01-30T15:09:28;17.17;;;9.23;;
31730;SDS011;18310;55.586;12.286;2024-01-30T15:12:34;21.63;;;10.00;;
31730;SDS011;18310;55.586;12.286;2024-01-30T15:15:37;14.20;;;8.73;;
31730;SDS011;18310;55.586;12.286;2024-01-30T15:18:41;19.38;;;10.02;;
31730;SDS011;18310;55.586;12.286;2024-01-30T15:22:04;15.38;;;8.77;;
31730;SDS011;18310;55.586;12.286;2024-01-30T15:25:07;16.00;;;9.18;;
31730;SDS011;18310;55.586;12.286;2024-01-30T15:28:11;20.48;;;9.65;;
31730;SDS011;18310;55.586;12.286;2024-01-30T15:31:16;16.33;;;8.98;;
31730;SDS011;18310;55.586;12.286;2024-01-30T15:34:20;20.55;;;9.48;;
31730;SDS011;18310;55.586;12.286;2024-01-30T15:37:25;16.60;;;9.70;;
31730;SDS011;18310;55.586;12.286;2024-01-30T15:40:29;15.82;;;9.57;;
31730;SDS011;18310;55.586;12.286;2024-01-30T15:43:32;13.88;;;8.95;;
31730;SDS011;18310;55.586;12.286;2024-01-30T15:46:36;16.35;;;9.80;;
31730;SDS011;18310;55.586;12.286;2024-01-30T15:49:40;15.70;;;10.07;;
31730;SDS011;18310;55.586;12.286;2024-01-30T15:52:45;17.30;;;10.10;;
31730;SDS011;18310;55.586;12.286;2024-01-30T15:55:49;14.60;;;9.82;;
31730;SDS011;18310;55.586;12.286;2024-01-30T15:58:52;21.02;;;11.43;;
31730;SDS011;18310;55.586;12.286;2024-01-30T16:01:56;17.20;;;9.73;;
31730;SDS011;18310;55.586;12.286;2024-01-30T16:04:59;18.65;;;9.02;;
31730;SDS011;18310;55.586;12.286;2024-01-30T16:08:06;13.43;;;8.18;;
31730;SDS011;18310;55.586;12.286;2024-01-30T16:11:09;13.20;;;8.68;;
31730;SDS011;18310;55.586;12.286;2024-01-30T16:14:13;16.17;;;8.50;;
31730;SDS011;18310;55.586;12.286;2024-01-30T16:17:17;15.75;;;8.80;;
31730;SDS011;18310;55.586;12.286;2024-01-30T16:20:21;17.08;;;9.13;;
31730;SDS011;18310;55.586;12.286;2024-01-30T16:23:26;16.98;;;9.70;;
31730;SDS011;18310;55.586;12.286;2024-01-30T16:26:30;15.43;;;9.00;;
31730;SDS011;18310;55.586;12.286;2024-01-30T16:29:33;15.82;;;9.48;;
31730;SDS011;18310;55.586;12.286;2024-01-30T16:32:38;19.00;;;9.98;;
31730;SDS011;18310;55.586;12.286;2024-01-30T16:35:42;17.70;;;10.38;;
31730;SDS011;18310;55.586;12.286;2024-01-30T16:38:50;17.42;;;10.20;;
31730;SDS011;18310;55.586;12.286;2024-01-30T16:41:53;19.23;;;10.38;;
31730;SDS011;18310;55.586;12.286;2024-01-30T16:44:56;16.60;;;9.00;;
31730;SDS011;18310;55.586;12.286;2024-01-30T16:48:00;17.67;;;10.05;;
31730;SDS011;18310;55.586;12.286;2024-01-30T16:54:10;21.38;;;10.23;;
31730;SDS011;18310;55.586;12.286;2024-01-30T16:57:15;16.90;;;10.40;;
31730;SDS011;18310;55.586;12.286;2024-01-30T17:00:18;15.43;;;9.57;;
31730;SDS011;18310;55.586;12.286;2024-01-30T17:03:21;22.83;;;10.57;;
31730;SDS011;18310;55.586;12.286;2024-01-30T17:09:31;17.90;;;9.70;;
31730;SDS011;18310;55.586;12.286;2024-01-30T17:12:35;17.45;;;10.73;;
31730;SDS011;18310;55.586;12.286;2024-01-30T17:15:38;20.23;;;10.93;;
31730;SDS011;18310;55.586;12.286;2024-01-30T17:18:42;20.60;;;10.60;;
31730;SDS011;18310;55.586;12.286;2024-01-30T17:21:45;21.60;;;11.80;;
31730;SDS011;18310;55.586;12.286;2024-01-30T17:24:51;21.55;;;11.52;;
31730;SDS011;18310;55.586;12.286;2024-01-30T17:27:55;23.95;;;12.13;;
31730;SDS011;18310;55.586;12.286;2024-01-30T17:31:02;18.30;;;11.40;;
31730;SDS011;18310;55.586;12.286;2024-01-30T17:34:06;22.63;;;12.90;;
31730;SDS011;18310;55.586;12.286;2024-01-30T17:37:10;22.67;;;13.25;;
31730;SDS011;18310;55.586;12.286;2024-01-30T17:43:19;23.65;;;12.55;;
31730;SDS011;18310;55.586;12.286;2024-01-30T17:46:22;27.05;;;14.10;;
31730;SDS011;18310;55.586;12.286;2024-01-30T17:49:26;26.45;;;12.68;;
31730;SDS011;18310;55.586;12.286;2024-01-30T17:52:32;26.35;;;14.15;;
31730;SDS011;18310;55.586;12.286;2024-01-30T17:55:37;29.13;;;14.88;;
31730;SDS011;18310;55.586;12.286;2024-01-30T17:58:41;23.48;;;13.80;;
31730;SDS011;18310;55.586;12.286;2024-01-30T18:01:45;24.98;;;14.63;;
31730;SDS011;18310;55.586;12.286;2024-01-30T18:04:49;25.83;;;12.95;;
31730;SDS011;18310;55.586;12.286;2024-01-30T18:07:52;23.60;;;13.68;;
31730;SDS011;18310;55.586;12.286;2024-01-30T18:10:59;22.45;;;13.10;;
31730;SDS011;18310;55.586;12.286;2024-01-30T18:14:05;23.55;;;12.88;;
31730;SDS011;18310;55.586;12.286;2024-01-30T18:17:08;22.05;;;12.75;;
31730;SDS011;18310;55.586;12.286;2024-01-30T18:20:12;17.45;;;11.95;;